createdAt,value
2022-12-01T00:09:35.844Z,-0.30
2022-12-01T00:19:37.671Z,-0.30
2022-12-01T00:29:40.422Z,-0.20
2022-12-01T00:39:42.303Z,-0.10
2022-12-01T00:49:44.238Z,0.00
2022-12-01T00:59:46.370Z,0.00
2022-12-01T01:09:48.716Z,0.00
2022-12-01T01:19:52.891Z,0.10
2022-12-01T01:29:54.816Z,0.10
2022-12-01T01:39:56.712Z,0.20
2022-12-01T01:50:05.225Z,0.20
2022-12-01T02:00:19.832Z,0.30
2022-12-01T02:10:28.342Z,0.30
2022-12-01T02:20:54.470Z,0.40
2022-12-01T02:31:16.240Z,0.50
2022-12-01T02:41:42.299Z,0.50
2022-12-01T02:51:44.909Z,0.60
2022-12-01T03:02:11.304Z,0.60
2022-12-01T03:12:25.238Z,0.60
2022-12-01T03:22:34.581Z,0.70
2022-12-01T03:32:52.162Z,0.70
2022-12-01T03:42:59.849Z,0.70
2022-12-01T03:53:23.870Z,0.70
2022-12-01T04:03:26.734Z,0.70
2022-12-01T04:13:28.591Z,0.80
2022-12-01T04:23:30.477Z,0.80
2022-12-01T04:33:32.329Z,0.80
2022-12-01T04:43:34.198Z,0.80
2022-12-01T04:53:36.843Z,0.80
2022-12-01T05:03:40.412Z,0.90
2022-12-01T05:13:45.086Z,0.90
2022-12-01T05:23:47.004Z,0.90
2022-12-01T05:33:48.820Z,1.00
2022-12-01T05:43:51.079Z,1.00
2022-12-01T05:53:53.037Z,1.10
2022-12-01T06:03:54.900Z,1.10
2022-12-01T06:13:56.978Z,1.10
2022-12-01T06:23:58.833Z,1.20
2022-12-01T06:34:00.699Z,1.20
2022-12-01T06:44:02.609Z,1.20
2022-12-01T06:54:05.781Z,1.30
2022-12-01T07:04:07.779Z,1.30
2022-12-01T07:14:19.916Z,1.40
2022-12-01T07:24:21.777Z,1.30
2022-12-01T07:34:23.573Z,1.30
2022-12-01T07:44:25.694Z,1.40
2022-12-01T07:54:27.525Z,1.40
2022-12-01T08:04:29.330Z,1.40
2022-12-01T08:14:31.289Z,1.40
2022-12-01T08:24:33.192Z,1.40
2022-12-01T08:34:37.700Z,1.50
2022-12-01T08:44:39.568Z,1.40
2022-12-01T08:54:41.435Z,1.50
2022-12-01T09:04:43.703Z,1.60
2022-12-01T09:14:45.534Z,1.50
2022-12-01T09:24:47.426Z,1.60
2022-12-01T09:34:49.252Z,1.50
2022-12-01T09:44:56.868Z,1.50
2022-12-01T09:55:00.195Z,1.50
2022-12-01T10:05:06.403Z,1.50
2022-12-01T10:15:27.415Z,1.40
2022-12-01T10:25:51.784Z,1.50
2022-12-01T10:35:54.162Z,1.50
2022-12-01T10:45:57.642Z,1.50
2022-12-01T10:56:11.795Z,1.40
2022-12-01T11:06:13.668Z,1.40
2022-12-01T11:16:33.946Z,1.50
2022-12-01T11:26:35.837Z,1.50
2022-12-01T11:36:47.218Z,1.60
2022-12-01T11:46:55.840Z,1.50
2022-12-01T12:08:09.527Z,1.50
2022-12-01T12:18:36.662Z,1.50
2022-12-01T12:29:01.472Z,1.50
2022-12-01T12:39:35.801Z,1.50
2022-12-01T12:50:03.324Z,1.60
2022-12-01T13:00:17.837Z,1.60
2022-12-01T13:10:34.907Z,1.50
2022-12-01T13:20:37.151Z,1.50
2022-12-01T13:30:38.988Z,1.50
2022-12-01T13:40:40.904Z,1.40
2022-12-01T13:50:42.717Z,1.50
2022-12-01T14:00:44.595Z,1.30
2022-12-01T14:11:01.629Z,1.30
2022-12-01T14:21:10.653Z,1.30
2022-12-01T14:31:13.314Z,1.20
2022-12-01T14:41:23.693Z,1.20
2022-12-01T14:51:35.001Z,1.20
2022-12-01T15:01:38.386Z,1.10
2022-12-01T15:11:52.433Z,1.10
2022-12-01T15:21:57.889Z,1.10
2022-12-01T15:32:03.053Z,1.10
2022-12-01T15:42:05.860Z,1.10
2022-12-01T15:52:12.877Z,1.10
2022-12-01T16:02:32.304Z,1.10
2022-12-01T16:12:35.114Z,1.10
2022-12-01T16:22:48.307Z,1.00
2022-12-01T16:32:50.704Z,1.10
2022-12-01T16:42:52.589Z,1.10
2022-12-01T16:52:57.188Z,1.00
2022-12-01T17:02:59.465Z,1.00
2022-12-01T17:13:01.629Z,1.00
2022-12-01T17:23:03.834Z,1.00
2022-12-01T17:33:05.721Z,1.00
2022-12-01T17:43:08.001Z,1.00
2022-12-01T17:53:14.016Z,1.00
2022-12-01T18:03:15.874Z,0.90
2022-12-01T18:13:21.393Z,0.90
2022-12-01T18:23:23.391Z,1.00
2022-12-01T18:33:25.246Z,1.00
2022-12-01T18:43:32.145Z,0.90
2022-12-01T18:53:34.644Z,0.90
2022-12-01T19:03:36.497Z,0.90
2022-12-01T19:13:38.507Z,0.90
2022-12-01T19:23:40.484Z,0.90
2022-12-01T19:33:42.853Z,0.90
2022-12-01T19:43:44.631Z,0.90
2022-12-01T19:53:47.095Z,0.80
2022-12-01T20:03:50.702Z,0.80
2022-12-01T20:13:52.982Z,0.80
2022-12-01T20:23:58.568Z,0.80
2022-12-01T20:34:07.439Z,0.80
2022-12-01T20:44:09.319Z,0.80
2022-12-01T20:54:30.113Z,0.70
2022-12-01T21:04:32.378Z,0.80
2022-12-01T21:15:03.145Z,0.80
2022-12-01T21:25:13.798Z,0.80
2022-12-01T21:35:25.469Z,0.70
2022-12-01T21:45:29.970Z,0.70
2022-12-01T21:55:33.987Z,0.70
2022-12-01T22:05:38.821Z,0.60
2022-12-01T22:15:41.643Z,0.60
2022-12-01T22:25:55.815Z,0.60
2022-12-01T22:35:58.925Z,0.60
2022-12-01T22:46:00.840Z,0.70
2022-12-01T22:56:19.356Z,0.60
2022-12-01T23:07:00.541Z,0.60
2022-12-01T23:17:07.960Z,0.50
2022-12-01T23:27:10.087Z,0.50
2022-12-01T23:37:47.822Z,0.40
2022-12-01T23:47:51.378Z,0.40
2022-12-01T23:57:54.021Z,0.40
